Time;durP1;ratioP1;P1;durP2;ratioP2;P2;SDS_P1;SDS_P2;PMS_P1;PMS_P2;Temp;Humidity;BMP_temperature;BMP_pressure;BME280_temperature;BME280_humidity;BME280_pressure;Samples;Min_cycle;Max_cycle;Signal;HPM_P1;HPM_P2
2021/05/27 00:02:14;;;;;;;1.70;0.50;;;10.00;99.90;;;;;;20847169;28;20053;-78
2021/05/27 00:12:15;;;;;;;0.37;0.37;;;10.00;99.90;;;;;;20838173;28;20028;-77
2021/05/27 00:22:16;;;;;;;0.37;0.30;;;9.90;99.90;;;;;;20836963;28;20065;-78
2021/05/27 00:32:17;;;;;;;0.60;0.47;;;9.80;99.90;;;;;;20828746;28;20029;-78
2021/05/27 00:42:18;;;;;;;0.47;0.47;;;9.80;99.90;;;;;;20835578;28;20017;-77
2021/05/27 00:52:19;;;;;;;3.73;0.60;;;9.80;99.90;;;;;;20837406;28;20120;-77
2021/05/27 01:02:20;;;;;;;0.30;0.30;;;9.80;99.90;;;;;;20833069;28;20091;-77
2021/05/27 01:12:22;;;;;;;1.70;0.60;;;9.70;99.90;;;;;;20832062;28;20073;-78
2021/05/27 01:22:26;;;;;;;0.63;0.60;;;9.60;99.90;;;;;;20826658;28;20116;-78
2021/05/27 01:32:28;;;;;;;0.73;0.65;;;9.60;99.90;;;;;;20824554;28;20025;-78
2021/05/27 01:42:30;;;;;;;2.97;0.68;;;9.50;99.90;;;;;;20824276;28;20120;-77
2021/05/27 01:52:31;;;;;;;4.07;0.57;;;9.60;99.90;;;;;;20824041;28;20101;-78
2021/05/27 02:02:32;;;;;;;1.27;0.97;;;9.50;99.90;;;;;;20823928;28;20029;-77
2021/05/27 02:12:34;;;;;;;1.95;1.17;;;9.40;99.90;;;;;;20824202;28;20025;-78
2021/05/27 02:22:37;;;;;;;1.73;1.52;;;9.30;99.90;;;;;;20823058;28;20038;-78
2021/05/27 02:32:49;;;;;;;1.70;1.42;;;9.30;99.90;;;;;;20796487;23;20045;-79
2021/05/27 02:42:51;;;;;;;3.17;1.48;;;9.20;99.90;;;;;;20780084;28;20029;-80
2021/05/27 02:52:52;;;;;;;2.87;1.87;;;9.30;99.90;;;;;;20764618;28;20060;-80
2021/05/27 03:02:54;;;;;;;3.42;2.58;;;9.20;99.90;;;;;;20763727;28;20377;-80
2021/05/27 03:12:56;;;;;;;3.47;1.52;;;9.10;99.90;;;;;;20762706;28;20404;-80
2021/05/27 03:22:59;;;;;;;1.73;1.40;;;9.10;99.90;;;;;;20762907;28;20480;-80
2021/05/27 03:33:00;;;;;;;2.03;1.23;;;9.00;99.90;;;;;;20773419;28;20041;-79
2021/05/27 03:43:01;;;;;;;2.42;1.45;;;9.00;99.90;;;;;;20760065;28;20026;-79
2021/05/27 03:53:07;;;;;;;2.50;1.90;;;8.90;99.90;;;;;;20759483;28;20046;-79
2021/05/27 04:03:09;;;;;;;3.58;2.30;;;8.80;99.90;;;;;;20759199;28;20038;-80
2021/05/27 04:13:17;;;;;;;4.88;2.60;;;9.00;99.90;;;;;;20758124;28;20038;-80
2021/05/27 04:23:38;;;;;;;2.40;2.10;;;9.10;99.90;;;;;;20758729;28;20099;-80
2021/05/27 04:33:59;;;;;;;1.75;1.33;;;9.20;99.90;;;;;;20758140;28;20461;-79
2021/05/27 04:44:00;;;;;;;1.75;1.23;;;9.00;99.90;;;;;;20757277;28;20034;-79
2021/05/27 04:54:01;;;;;;;1.23;1.07;;;9.00;99.90;;;;;;20737952;28;20030;-80
2021/05/27 05:04:02;;;;;;;1.80;1.33;;;9.00;99.90;;;;;;20755427;28;20036;-79
2021/05/27 05:14:03;;;;;;;2.50;1.70;;;9.00;99.90;;;;;;20753214;28;20033;-79
2021/05/27 05:24:05;;;;;;;3.27;2.50;;;9.00;99.90;;;;;;20752842;28;20084;-80
2021/05/27 05:34:05;;;;;;;5.15;2.67;;;9.10;99.90;;;;;;20752938;28;20054;-79
2021/05/27 05:44:07;;;;;;;4.60;3.17;;;9.20;99.90;;;;;;20754259;28;20084;-79
2021/05/27 05:54:07;;;;;;;10.20;4.70;;;9.20;99.90;;;;;;20751733;28;20061;-79
2021/05/27 06:04:08;;;;;;;3.37;2.17;;;9.40;99.90;;;;;;20762590;28;20026;-79
2021/05/27 06:14:47;;;;;;;3.28;2.35;;;9.50;99.90;;;;;;20764000;28;20054;-80
2021/05/27 06:24:48;;;;;;;4.73;2.30;;;9.50;99.90;;;;;;20767557;28;20033;-80
2021/05/27 06:34:52;;;;;;;4.03;2.90;;;9.50;99.90;;;;;;20762531;28;20034;-78
2021/05/27 06:44:52;;;;;;;4.90;3.17;;;9.50;99.90;;;;;;20763443;28;20069;-80
2021/05/27 06:54:53;;;;;;;3.13;2.20;;;9.60;99.90;;;;;;20763789;28;20496;-79
2021/05/27 07:04:54;;;;;;;4.43;2.70;;;9.80;99.90;;;;;;20764378;28;20040;-79
2021/05/27 07:14:55;;;;;;;3.77;2.13;;;9.90;99.90;;;;;;20762295;28;20036;-78
2021/05/27 07:24:56;;;;;;;9.73;5.30;;;9.90;99.90;;;;;;20762435;28;20674;-78
2021/05/27 07:34:57;;;;;;;3.17;2.50;;;10.00;99.90;;;;;;20760902;28;20030;-79
2021/05/27 07:44:57;;;;;;;5.37;2.13;;;10.30;99.90;;;;;;20775484;28;20034;-78
2021/05/27 07:54:58;;;;;;;3.37;1.20;;;10.10;99.90;;;;;;20775752;28;20080;-77
2021/05/27 08:04:59;;;;;;;2.20;1.50;;;9.90;99.90;;;;;;20794092;28;20034;-78
2021/05/27 08:15:00;;;;;;;3.30;1.40;;;10.10;99.90;;;;;;20808865;28;20044;-78
2021/05/27 08:25:02;;;;;;;1.70;1.10;;;9.80;99.90;;;;;;20838416;28;20408;-78
2021/05/27 08:35:05;;;;;;;2.78;1.40;;;9.50;99.90;;;;;;20763574;28;20034;-79
2021/05/27 08:45:08;;;;;;;2.53;1.60;;;9.40;99.90;;;;;;20752813;28;20045;-79
2021/05/27 08:55:09;;;;;;;5.15;1.55;;;9.60;99.90;;;;;;20735202;28;20030;-79
2021/05/27 09:05:15;;;;;;;1.83;1.50;;;9.40;99.90;;;;;;20769630;28;20076;-77
2021/05/27 09:15:15;;;;;;;3.03;1.35;;;9.50;99.90;;;;;;20807927;28;20041;-79
2021/05/27 09:25:24;;;;;;;3.63;1.67;;;9.70;99.90;;;;;;20735225;28;20430;-78
2021/05/27 09:35:26;;;;;;;2.65;1.67;;;9.50;99.90;;;;;;20705997;28;20045;-77
2021/05/27 09:45:29;;;;;;;3.00;1.67;;;9.60;99.90;;;;;;20724314;28;20034;-77
2021/05/27 09:55:34;;;;;;;4.65;1.30;;;9.30;99.90;;;;;;20723194;28;20045;-78
2021/05/27 10:05:46;;;;;;;6.93;1.42;;;9.60;99.90;;;;;;20726243;28;20057;-79
2021/05/27 10:15:47;;;;;;;5.50;1.40;;;10.40;99.90;;;;;;20709325;28;20822;-79
2021/05/27 10:25:51;;;;;;;2.20;1.37;;;11.00;99.90;;;;;;20701628;28;20081;-79
2021/05/27 10:36:00;;;;;;;2.55;1.75;;;11.20;99.90;;;;;;20717715;28;20507;-79
2021/05/27 10:46:07;;;;;;;1.95;1.10;;;12.40;99.90;;;;;;20796104;28;20092;-79
2021/05/27 10:56:11;;;;;;;1.80;0.90;;;12.70;99.90;;;;;;20786349;28;20120;-79
2021/05/27 11:06:33;;;;;;;1.63;1.13;;;12.90;99.90;;;;;;20823500;28;20038;-80
2021/05/27 11:16:34;;;;;;;1.53;1.00;;;13.20;99.90;;;;;;20679035;28;20452;-78
2021/05/27 11:26:35;;;;;;;1.80;1.07;;;13.90;99.90;;;;;;20687876;28;20030;-80
2021/05/27 11:36:36;;;;;;;6.47;1.17;;;14.40;99.90;;;;;;20723292;28;20129;-80
2021/05/27 11:46:37;;;;;;;4.23;2.00;;;14.70;99.90;;;;;;20827950;28;20066;-79
2021/05/27 11:56:40;;;;;;;4.05;0.88;;;14.90;99.90;;;;;;20844118;28;20045;-80
2021/05/27 12:06:43;;;;;;;1.73;1.10;;;14.40;99.90;;;;;;20841798;28;20030;-81
2021/05/27 12:16:44;;;;;;;2.88;1.02;;;14.10;99.90;;;;;;20841529;28;20049;-79
2021/05/27 12:26:49;;;;;;;2.43;1.07;;;15.60;99.90;;;;;;20839640;28;20029;-79
2021/05/27 12:37:00;;;;;;;2.85;1.35;;;15.10;99.90;;;;;;20851265;28;20107;-80
2021/05/27 12:47:14;;;;;;;1.33;1.00;;;15.50;99.90;;;;;;20841398;28;20071;-80
2021/05/27 12:57:16;;;;;;;1.42;0.70;;;15.40;99.90;;;;;;20840114;28;20044;-80
2021/05/27 13:07:20;;;;;;;1.50;0.77;;;15.60;99.90;;;;;;20839550;28;20399;-80
2021/05/27 13:17:22;;;;;;;3.28;0.98;;;15.70;99.90;;;;;;20841060;28;20060;-81
2021/05/27 13:37:56;;;;;;;1.73;1.02;;;15.80;99.90;;;;;;20837391;28;20519;-80
2021/05/27 13:47:58;;;;;;;2.05;0.82;;;15.90;99.90;;;;;;20825156;28;20470;-80
2021/05/27 13:58:03;;;;;;;2.27;0.90;;;16.70;99.90;;;;;;20836500;28;20076;-80
2021/05/27 14:08:05;;;;;;;3.17;1.23;;;16.20;99.90;;;;;;20838257;28;20033;-80
2021/05/27 14:18:06;;;;;;;2.35;1.05;;;16.70;99.90;;;;;;20837083;28;20038;-78
2021/05/27 14:28:07;;;;;;;1.73;0.90;;;16.80;99.90;;;;;;20835284;28;20529;-80
2021/05/27 14:38:07;;;;;;;2.80;1.00;;;17.40;99.90;;;;;;20862850;28;20448;-80
2021/05/27 14:48:08;;;;;;;5.38;1.00;;;16.20;99.90;;;;;;20853819;28;20063;-81
2021/05/27 14:58:09;;;;;;;1.42;0.90;;;16.70;99.90;;;;;;20801549;28;20101;-81
2021/05/27 15:08:10;;;;;;;1.70;0.77;;;16.80;99.90;;;;;;20766261;28;20038;-81
2021/05/27 15:18:11;;;;;;;2.57;1.00;;;17.60;99.90;;;;;;20726547;28;20104;-79
2021/05/27 15:28:12;;;;;;;1.40;0.60;;;17.10;99.90;;;;;;20749255;28;20041;-79
2021/05/27 15:38:13;;;;;;;2.13;1.10;;;17.20;99.90;;;;;;20783609;28;20033;-79
2021/05/27 15:48:18;;;;;;;1.23;0.63;;;17.90;99.90;;;;;;20765192;28;20552;-80
2021/05/27 15:58:19;;;;;;;1.85;0.73;;;18.00;99.90;;;;;;20763348;28;20152;-78
2021/05/27 16:08:19;;;;;;;2.43;0.70;;;17.60;99.90;;;;;;20765202;28;20041;-79
2021/05/27 16:18:20;;;;;;;2.13;0.83;;;17.20;99.90;;;;;;20764371;28;20053;-79
2021/05/27 16:28:21;;;;;;;0.80;0.50;;;17.50;99.90;;;;;;20762825;28;20492;-79
2021/05/27 16:38:24;;;;;;;0.93;0.60;;;17.40;99.90;;;;;;20774298;28;20038;-80
2021/05/27 16:48:29;;;;;;;2.13;0.90;;;17.40;99.90;;;;;;20763852;28;20042;-81
2021/05/27 16:58:30;;;;;;;4.50;0.65;;;17.30;99.90;;;;;;20767683;28;20033;-79
2021/05/27 17:08:31;;;;;;;3.20;1.00;;;16.90;99.90;;;;;;20760963;28;20504;-79
2021/05/27 17:18:32;;;;;;;2.78;1.15;;;17.10;99.90;;;;;;20755120;28;20026;-78
2021/05/27 17:28:36;;;;;;;3.38;0.88;;;16.90;99.90;;;;;;20770390;28;20038;-79
2021/05/27 17:38:39;;;;;;;1.08;0.50;;;17.10;99.90;;;;;;20748910;28;20029;-80
2021/05/27 17:48:40;;;;;;;1.48;0.80;;;17.00;99.90;;;;;;20756579;28;20484;-79
2021/05/27 17:58:40;;;;;;;4.35;0.90;;;17.20;99.90;;;;;;20767758;28;20087;-80
2021/05/27 18:08:41;;;;;;;2.22;1.08;;;19.00;99.90;;;;;;20773206;28;20029;-80
2021/05/27 18:18:42;;;;;;;4.23;0.70;;;19.20;99.90;;;;;;20729938;28;20054;-80
2021/05/27 18:28:43;;;;;;;3.43;0.70;;;17.40;99.90;;;;;;20691322;28;20027;-79
2021/05/27 18:38:44;;;;;;;3.08;1.10;;;16.50;99.90;;;;;;20687245;28;20036;-79
2021/05/27 18:48:45;;;;;;;3.57;1.27;;;15.10;99.90;;;;;;20691851;28;20031;-80
2021/05/27 18:58:47;;;;;;;6.45;1.75;;;14.00;99.90;;;;;;20687598;28;20031;-80
2021/05/27 19:08:48;;;;;;;3.65;1.70;;;13.60;99.90;;;;;;20683071;28;20464;-80
2021/05/27 19:18:49;;;;;;;2.50;1.30;;;12.70;99.90;;;;;;20684501;28;20030;-80
2021/05/27 19:28:50;;;;;;;2.40;1.33;;;12.50;99.90;;;;;;20682439;28;20034;-81
2021/05/27 19:38:55;;;;;;;2.07;1.57;;;12.10;99.90;;;;;;20688315;28;20493;-81
2021/05/27 19:49:03;;;;;;;5.25;1.20;;;11.20;99.90;;;;;;20727828;28;20034;-81
2021/05/27 19:59:04;;;;;;;3.17;1.42;;;10.70;99.90;;;;;;20778721;28;20034;-79
2021/05/27 20:09:05;;;;;;;5.63;2.03;;;10.60;99.90;;;;;;20764166;28;20029;-81
2021/05/27 20:19:07;;;;;;;4.53;2.87;;;10.10;99.90;;;;;;20760430;28;20109;-81
2021/05/27 20:29:07;;;;;;;6.43;2.63;;;10.30;99.90;;;;;;20774363;28;20370;-82
2021/05/27 20:49:17;;;;;;;4.97;2.95;;;9.50;99.90;;;;;;20841047;28;20045;-78
2021/05/27 20:59:18;;;;;;;7.13;2.37;;;9.40;99.90;;;;;;20777041;28;20042;-77
2021/05/27 21:09:19;;;;;;;3.67;1.83;;;9.90;99.90;;;;;;20792481;28;20521;-78
2021/05/27 21:19:21;;;;;;;4.87;2.83;;;9.90;99.90;;;;;;20767185;28;20045;-78
2021/05/27 21:29:22;;;;;;;4.97;2.63;;;9.60;99.90;;;;;;20716511;28;20034;-79
2021/05/27 21:39:24;;;;;;;3.17;1.87;;;9.50;99.90;;;;;;20774213;28;20288;-78
2021/05/27 21:49:25;;;;;;;;;;;9.60;99.90;;;;;;20797906;28;20625;-79
2021/05/27 21:59:26;;;;;;;6.03;2.00;;;9.40;99.90;;;;;;20814653;28;19919;-79
2021/05/27 22:09:27;;;;;;;5.07;1.93;;;9.50;99.90;;;;;;20797095;28;20037;-79
2021/05/27 22:19:29;;;;;;;5.40;2.20;;;9.20;99.90;;;;;;20809601;28;20120;-78
2021/05/27 22:29:30;;;;;;;5.72;1.85;;;8.70;99.90;;;;;;20808653;28;20037;-78
2021/05/27 22:39:31;;;;;;;3.00;2.23;;;8.90;99.90;;;;;;20790648;28;20045;-78
2021/05/27 22:49:32;;;;;;;2.20;1.77;;;8.60;99.90;;;;;;20798248;28;20040;-78
2021/05/27 22:59:33;;;;;;;6.57;1.87;;;8.50;99.90;;;;;;20807015;28;20026;-79
2021/05/27 23:09:34;;;;;;;3.20;2.20;;;8.70;99.90;;;;;;20767247;28;20040;-78
2021/05/27 23:19:35;;;;;;;4.03;1.57;;;8.60;99.90;;;;;;20788642;28;20029;-80
2021/05/27 23:29:35;;;;;;;2.03;1.50;;;8.60;99.90;;;;;;20808818;28;20030;-79
2021/05/27 23:39:36;;;;;;;3.67;2.10;;;8.00;99.90;;;;;;20812283;28;20037;-79
2021/05/27 23:49:39;;;;;;;5.67;2.17;;;7.80;99.90;;;;;;20828775;28;20061;-79
2021/05/27 23:59:40;;;;;;;4.80;2.10;;;8.00;99.90;;;;;;20748591;28;20113;-79
